Auburn, Nebraska
Current Conditions -  °F | °C
As of 8:15 AM on Sunday 21 Dec 2014 (Local Time) from KAFK Reporting Station
Haze Haze  
Wind Chill: 28°   Ceiling: 1000
Heat Index: 36°   Visibility: 3mi
Dew Point: 36°   Wind: 12mph
Humidity: 100%   Direction: 180°S
Pressure: 29.92"   Gusts: NA
Location:  40.39°N, 95.84°W
Report Text: KAFK 211415Z AUTO 18010KT 3SM BR SCT004 OVC010 02/02 A2992 RMK AO2 T00220022
Loading
Personal Weather Stations






























Interactive Weather Map New forecast layout! Learn more

10-Day Weather Forecast

Advertisements
Track Severe Weather on mobile